sensor_id;sensor_type;location;lat;lon;timestamp;temperature;humidity
10294;DHT22;5192;50.328;7.610;2023-04-24T00:01:56;11.60;38.90
10294;DHT22;5192;50.328;7.610;2023-04-24T00:04:22;11.60;39.10
10294;DHT22;5192;50.328;7.610;2023-04-24T00:06:53;11.70;39.40
10294;DHT22;5192;50.328;7.610;2023-04-24T00:09:39;11.60;38.90
10294;DHT22;5192;50.328;7.610;2023-04-24T00:12:07;11.60;38.00
10294;DHT22;5192;50.328;7.610;2023-04-24T00:14:33;11.60;36.30
10294;DHT22;5192;50.328;7.610;2023-04-24T00:17:03;11.80;36.00
10294;DHT22;5192;50.328;7.610;2023-04-24T00:19:30;11.60;36.40
10294;DHT22;5192;50.328;7.610;2023-04-24T00:21:58;11.60;39.90
10294;DHT22;5192;50.328;7.610;2023-04-24T00:24:24;11.70;41.60
10294;DHT22;5192;50.328;7.610;2023-04-24T00:26:51;11.50;40.90
10294;DHT22;5192;50.328;7.610;2023-04-24T00:29:19;11.40;40.40
10294;DHT22;5192;50.328;7.610;2023-04-24T00:31:47;11.40;41.80
10294;DHT22;5192;50.328;7.610;2023-04-24T00:34:14;11.40;41.90
10294;DHT22;5192;50.328;7.610;2023-04-24T00:36:40;11.40;40.40
10294;DHT22;5192;50.328;7.610;2023-04-24T00:39:07;11.30;42.30
10294;DHT22;5192;50.328;7.610;2023-04-24T00:41:35;11.50;39.40
10294;DHT22;5192;50.328;7.610;2023-04-24T00:44:02;11.40;38.60
10294;DHT22;5192;50.328;7.610;2023-04-24T00:46:30;11.30;39.60
10294;DHT22;5192;50.328;7.610;2023-04-24T00:48:59;11.40;34.00
10294;DHT22;5192;50.328;7.610;2023-04-24T00:51:26;11.40;31.10
10294;DHT22;5192;50.328;7.610;2023-04-24T00:53:54;11.40;30.50
10294;DHT22;5192;50.328;7.610;2023-04-24T00:56:21;11.40;33.40
10294;DHT22;5192;50.328;7.610;2023-04-24T00:58:49;11.40;29.30
10294;DHT22;5192;50.328;7.610;2023-04-24T01:01:18;11.40;28.10
10294;DHT22;5192;50.328;7.610;2023-04-24T01:03:51;11.30;25.20
10294;DHT22;5192;50.328;7.610;2023-04-24T01:06:21;11.30;23.50
10294;DHT22;5192;50.328;7.610;2023-04-24T01:08:49;11.30;24.00
10294;DHT22;5192;50.328;7.610;2023-04-24T01:11:16;11.30;23.90
10294;DHT22;5192;50.328;7.610;2023-04-24T01:13:46;11.30;23.30
10294;DHT22;5192;50.328;7.610;2023-04-24T01:16:14;11.30;24.00
10294;DHT22;5192;50.328;7.610;2023-04-24T01:18:47;11.30;22.30
10294;DHT22;5192;50.328;7.610;2023-04-24T01:21:15;11.20;22.80
10294;DHT22;5192;50.328;7.610;2023-04-24T01:23:45;11.20;24.00
10294;DHT22;5192;50.328;7.610;2023-04-24T01:26:14;11.20;25.10
10294;DHT22;5192;50.328;7.610;2023-04-24T01:28:41;11.20;25.20
10294;DHT22;5192;50.328;7.610;2023-04-24T01:31:08;11.10;25.60
10294;DHT22;5192;50.328;7.610;2023-04-24T01:33:35;11.10;25.00
10294;DHT22;5192;50.328;7.610;2023-04-24T01:36:03;11.10;25.80
10294;DHT22;5192;50.328;7.610;2023-04-24T01:38:30;11.10;27.20
10294;DHT22;5192;50.328;7.610;2023-04-24T01:40:56;11.10;28.70
10294;DHT22;5192;50.328;7.610;2023-04-24T01:43:23;11.10;29.40
10294;DHT22;5192;50.328;7.610;2023-04-24T01:45:52;11.00;30.40
10294;DHT22;5192;50.328;7.610;2023-04-24T01:48:20;10.90;30.60
10294;DHT22;5192;50.328;7.610;2023-04-24T01:50:46;10.90;30.30
10294;DHT22;5192;50.328;7.610;2023-04-24T01:53:13;10.90;31.40
10294;DHT22;5192;50.328;7.610;2023-04-24T01:55:42;10.80;31.00
10294;DHT22;5192;50.328;7.610;2023-04-24T01:58:09;10.80;31.40
10294;DHT22;5192;50.328;7.610;2023-04-24T02:00:37;10.70;29.40
10294;DHT22;5192;50.328;7.610;2023-04-24T02:03:04;10.70;30.50
10294;DHT22;5192;50.328;7.610;2023-04-24T02:05:30;10.70;29.70
10294;DHT22;5192;50.328;7.610;2023-04-24T02:07:58;10.70;30.80
10294;DHT22;5192;50.328;7.610;2023-04-24T02:10:24;10.70;30.00
10294;DHT22;5192;50.328;7.610;2023-04-24T02:12:52;10.70;28.70
10294;DHT22;5192;50.328;7.610;2023-04-24T02:15:20;10.70;30.00
10294;DHT22;5192;50.328;7.610;2023-04-24T02:17:48;10.70;28.80
10294;DHT22;5192;50.328;7.610;2023-04-24T02:20:14;10.60;25.60
10294;DHT22;5192;50.328;7.610;2023-04-24T02:22:42;10.80;27.20
10294;DHT22;5192;50.328;7.610;2023-04-24T02:25:09;10.60;27.40
10294;DHT22;5192;50.328;7.610;2023-04-24T02:27:36;10.60;26.70
10294;DHT22;5192;50.328;7.610;2023-04-24T02:30:02;10.60;24.90
10294;DHT22;5192;50.328;7.610;2023-04-24T02:32:30;10.60;22.50
10294;DHT22;5192;50.328;7.610;2023-04-24T02:34:58;10.60;24.20
10294;DHT22;5192;50.328;7.610;2023-04-24T02:37:25;10.60;24.40
10294;DHT22;5192;50.328;7.610;2023-04-24T02:39:52;10.60;21.70
10294;DHT22;5192;50.328;7.610;2023-04-24T02:42:19;10.60;23.60
10294;DHT22;5192;50.328;7.610;2023-04-24T02:44:46;10.50;23.70
10294;DHT22;5192;50.328;7.610;2023-04-24T02:47:13;10.70;24.00
10294;DHT22;5192;50.328;7.610;2023-04-24T02:49:41;10.50;22.70
10294;DHT22;5192;50.328;7.610;2023-04-24T02:52:09;10.40;23.60
10294;DHT22;5192;50.328;7.610;2023-04-24T02:54:36;10.40;24.10
10294;DHT22;5192;50.328;7.610;2023-04-24T02:57:02;10.40;21.80
10294;DHT22;5192;50.328;7.610;2023-04-24T02:59:28;10.30;22.90
10294;DHT22;5192;50.328;7.610;2023-04-24T03:01:56;10.30;22.00
10294;DHT22;5192;50.328;7.610;2023-04-24T03:04:23;10.20;22.80
10294;DHT22;5192;50.328;7.610;2023-04-24T03:06:51;10.20;22.10
10294;DHT22;5192;50.328;7.610;2023-04-24T03:09:21;10.10;21.00
10294;DHT22;5192;50.328;7.610;2023-04-24T03:11:48;10.00;21.40
10294;DHT22;5192;50.328;7.610;2023-04-24T03:14:17;10.00;21.90
10294;DHT22;5192;50.328;7.610;2023-04-24T03:16:44;9.90;21.70
10294;DHT22;5192;50.328;7.610;2023-04-24T03:19:11;9.90;22.60
10294;DHT22;5192;50.328;7.610;2023-04-24T03:21:38;9.70;19.70
10294;DHT22;5192;50.328;7.610;2023-04-24T03:24:09;9.70;20.20
10294;DHT22;5192;50.328;7.610;2023-04-24T03:26:36;9.60;18.50
10294;DHT22;5192;50.328;7.610;2023-04-24T03:29:03;9.60;16.80
10294;DHT22;5192;50.328;7.610;2023-04-24T03:31:29;9.50;15.20
10294;DHT22;5192;50.328;7.610;2023-04-24T03:33:55;9.60;14.40
10294;DHT22;5192;50.328;7.610;2023-04-24T03:36:22;9.40;16.60
10294;DHT22;5192;50.328;7.610;2023-04-24T03:38:58;9.30;15.90
10294;DHT22;5192;50.328;7.610;2023-04-24T03:41:26;9.30;16.10
10294;DHT22;5192;50.328;7.610;2023-04-24T03:43:53;9.20;13.20
10294;DHT22;5192;50.328;7.610;2023-04-24T03:46:20;9.20;14.60
10294;DHT22;5192;50.328;7.610;2023-04-24T03:48:47;9.10;15.20
10294;DHT22;5192;50.328;7.610;2023-04-24T03:51:14;9.00;13.90
10294;DHT22;5192;50.328;7.610;2023-04-24T03:53:41;9.00;14.50
10294;DHT22;5192;50.328;7.610;2023-04-24T03:56:09;8.90;15.40
10294;DHT22;5192;50.328;7.610;2023-04-24T03:58:36;8.80;15.90
10294;DHT22;5192;50.328;7.610;2023-04-24T04:01:04;8.80;16.90
10294;DHT22;5192;50.328;7.610;2023-04-24T04:03:34;8.70;18.00
10294;DHT22;5192;50.328;7.610;2023-04-24T04:06:02;8.70;17.60
10294;DHT22;5192;50.328;7.610;2023-04-24T04:08:30;8.60;19.10
10294;DHT22;5192;50.328;7.610;2023-04-24T04:10:57;8.60;19.50
10294;DHT22;5192;50.328;7.610;2023-04-24T04:13:24;8.50;20.10
10294;DHT22;5192;50.328;7.610;2023-04-24T04:15:51;8.40;21.50
10294;DHT22;5192;50.328;7.610;2023-04-24T04:18:17;8.40;21.00
10294;DHT22;5192;50.328;7.610;2023-04-24T04:20:44;8.40;21.50
10294;DHT22;5192;50.328;7.610;2023-04-24T04:23:12;8.40;20.50
10294;DHT22;5192;50.328;7.610;2023-04-24T04:25:39;8.40;20.60
10294;DHT22;5192;50.328;7.610;2023-04-24T04:28:07;8.30;21.50
10294;DHT22;5192;50.328;7.610;2023-04-24T04:30:35;8.30;20.90
10294;DHT22;5192;50.328;7.610;2023-04-24T04:33:05;8.30;21.60
10294;DHT22;5192;50.328;7.610;2023-04-24T04:35:32;8.20;22.10
10294;DHT22;5192;50.328;7.610;2023-04-24T04:37:59;8.20;18.30
10294;DHT22;5192;50.328;7.610;2023-04-24T04:40:25;8.30;18.40
10294;DHT22;5192;50.328;7.610;2023-04-24T04:42:52;8.30;20.40
10294;DHT22;5192;50.328;7.610;2023-04-24T04:45:20;8.40;20.50
10294;DHT22;5192;50.328;7.610;2023-04-24T04:47:47;8.30;19.60
10294;DHT22;5192;50.328;7.610;2023-04-24T04:50:13;8.30;19.30
10294;DHT22;5192;50.328;7.610;2023-04-24T04:52:40;8.30;20.40
10294;DHT22;5192;50.328;7.610;2023-04-24T04:55:07;8.30;19.60
10294;DHT22;5192;50.328;7.610;2023-04-24T04:57:34;8.30;19.30
10294;DHT22;5192;50.328;7.610;2023-04-24T05:00:02;8.30;18.30
10294;DHT22;5192;50.328;7.610;2023-04-24T05:02:33;8.30;19.10
10294;DHT22;5192;50.328;7.610;2023-04-24T05:04:59;8.30;19.20
10294;DHT22;5192;50.328;7.610;2023-04-24T05:07:26;8.30;17.00
10294;DHT22;5192;50.328;7.610;2023-04-24T05:09:53;8.30;17.90
10294;DHT22;5192;50.328;7.610;2023-04-24T05:12:20;8.30;17.40
10294;DHT22;5192;50.328;7.610;2023-04-24T05:14:47;8.30;15.20
10294;DHT22;5192;50.328;7.610;2023-04-24T05:17:14;8.30;16.00
10294;DHT22;5192;50.328;7.610;2023-04-24T05:19:41;8.30;16.30
10294;DHT22;5192;50.328;7.610;2023-04-24T05:22:08;8.30;16.80
10294;DHT22;5192;50.328;7.610;2023-04-24T05:24:36;8.30;17.00
10294;DHT22;5192;50.328;7.610;2023-04-24T05:27:02;8.30;16.90
10294;DHT22;5192;50.328;7.610;2023-04-24T05:29:31;8.30;17.00
10294;DHT22;5192;50.328;7.610;2023-04-24T05:32:00;8.50;17.60
10294;DHT22;5192;50.328;7.610;2023-04-24T05:34:27;8.40;16.80
10294;DHT22;5192;50.328;7.610;2023-04-24T05:36:55;8.40;16.60
10294;DHT22;5192;50.328;7.610;2023-04-24T05:39:22;8.40;16.50
10294;DHT22;5192;50.328;7.610;2023-04-24T05:41:51;8.40;16.90
10294;DHT22;5192;50.328;7.610;2023-04-24T05:44:18;8.40;16.90
10294;DHT22;5192;50.328;7.610;2023-04-24T05:46:45;8.40;16.60
10294;DHT22;5192;50.328;7.610;2023-04-24T05:49:11;8.50;16.90
10294;DHT22;5192;50.328;7.610;2023-04-24T05:51:38;8.50;16.90
10294;DHT22;5192;50.328;7.610;2023-04-24T05:54:07;8.60;17.20
10294;DHT22;5192;50.328;7.610;2023-04-24T05:56:33;8.70;16.90
10294;DHT22;5192;50.328;7.610;2023-04-24T05:59:01;8.80;13.90
10294;DHT22;5192;50.328;7.610;2023-04-24T06:01:29;8.80;14.40
10294;DHT22;5192;50.328;7.610;2023-04-24T06:03:55;8.90;17.50
10294;DHT22;5192;50.328;7.610;2023-04-24T06:06:22;8.90;15.50
10294;DHT22;5192;50.328;7.610;2023-04-24T06:08:50;9.00;15.30
10294;DHT22;5192;50.328;7.610;2023-04-24T06:11:17;9.00;15.90
10294;DHT22;5192;50.328;7.610;2023-04-24T06:13:44;9.10;16.30
10294;DHT22;5192;50.328;7.610;2023-04-24T06:16:12;9.20;15.60
10294;DHT22;5192;50.328;7.610;2023-04-24T06:18:40;9.20;14.20
10294;DHT22;5192;50.328;7.610;2023-04-24T06:21:07;9.20;13.80
10294;DHT22;5192;50.328;7.610;2023-04-24T06:23:34;9.30;14.30
10294;DHT22;5192;50.328;7.610;2023-04-24T06:26:02;9.20;13.70
10294;DHT22;5192;50.328;7.610;2023-04-24T06:28:29;9.30;14.60
10294;DHT22;5192;50.328;7.610;2023-04-24T06:30:57;9.30;14.60
10294;DHT22;5192;50.328;7.610;2023-04-24T06:33:24;9.30;12.50
10294;DHT22;5192;50.328;7.610;2023-04-24T06:35:51;9.20;14.60
10294;DHT22;5192;50.328;7.610;2023-04-24T06:38:19;9.40;15.30
10294;DHT22;5192;50.328;7.610;2023-04-24T06:40:45;9.60;15.50
10294;DHT22;5192;50.328;7.610;2023-04-24T06:43:12;9.70;10.10
10294;DHT22;5192;50.328;7.610;2023-04-24T06:45:39;9.70;10.30
10294;DHT22;5192;50.328;7.610;2023-04-24T06:48:06;9.70;9.10
10294;DHT22;5192;50.328;7.610;2023-04-24T06:50:33;9.80;8.40
10294;DHT22;5192;50.328;7.610;2023-04-24T06:53:00;9.80;8.90
10294;DHT22;5192;50.328;7.610;2023-04-24T06:55:26;9.70;8.50
10294;DHT22;5192;50.328;7.610;2023-04-24T06:57:54;9.90;7.60
10294;DHT22;5192;50.328;7.610;2023-04-24T07:00:19;9.80;7.00
10294;DHT22;5192;50.328;7.610;2023-04-24T07:02:46;9.80;7.60
10294;DHT22;5192;50.328;7.610;2023-04-24T07:05:16;10.00;8.20
10294;DHT22;5192;50.328;7.610;2023-04-24T07:07:47;10.10;8.60
10294;DHT22;5192;50.328;7.610;2023-04-24T07:10:14;10.10;6.30
10294;DHT22;5192;50.328;7.610;2023-04-24T07:12:42;10.20;6.20
10294;DHT22;5192;50.328;7.610;2023-04-24T07:15:08;10.10;6.50
10294;DHT22;5192;50.328;7.610;2023-04-24T07:17:35;10.20;6.00
10294;DHT22;5192;50.328;7.610;2023-04-24T07:20:04;10.20;6.00
10294;DHT22;5192;50.328;7.610;2023-04-24T07:22:31;10.10;5.70
10294;DHT22;5192;50.328;7.610;2023-04-24T07:24:57;10.10;5.50
10294;DHT22;5192;50.328;7.610;2023-04-24T07:27:25;10.10;6.40
10294;DHT22;5192;50.328;7.610;2023-04-24T07:29:52;10.10;3.90
10294;DHT22;5192;50.328;7.610;2023-04-24T07:32:20;10.00;5.20
10294;DHT22;5192;50.328;7.610;2023-04-24T07:34:47;10.00;5.40
10294;DHT22;5192;50.328;7.610;2023-04-24T07:37:13;10.10;5.90
10294;DHT22;5192;50.328;7.610;2023-04-24T07:39:41;10.10;5.40
10294;DHT22;5192;50.328;7.610;2023-04-24T07:42:09;10.00;5.70
10294;DHT22;5192;50.328;7.610;2023-04-24T07:44:36;10.00;6.10
10294;DHT22;5192;50.328;7.610;2023-04-24T07:47:03;10.10;6.10
10294;DHT22;5192;50.328;7.610;2023-04-24T07:49:31;10.30;7.70
10294;DHT22;5192;50.328;7.610;2023-04-24T07:51:58;10.40;5.80
10294;DHT22;5192;50.328;7.610;2023-04-24T07:54:28;10.60;5.40
10294;DHT22;5192;50.328;7.610;2023-04-24T07:56:56;10.40;3.00
10294;DHT22;5192;50.328;7.610;2023-04-24T07:59:24;10.60;6.00
10294;DHT22;5192;50.328;7.610;2023-04-24T08:01:51;10.70;4.20
10294;DHT22;5192;50.328;7.610;2023-04-24T08:04:21;10.70;2.30
10294;DHT22;5192;50.328;7.610;2023-04-24T08:06:48;10.70;3.50
10294;DHT22;5192;50.328;7.610;2023-04-24T08:09:15;10.60;3.00
10294;DHT22;5192;50.328;7.610;2023-04-24T08:11:42;10.60;3.90
10294;DHT22;5192;50.328;7.610;2023-04-24T08:14:09;10.50;5.50
10294;DHT22;5192;50.328;7.610;2023-04-24T08:16:37;10.50;5.80
10294;DHT22;5192;50.328;7.610;2023-04-24T08:19:05;10.50;5.50
10294;DHT22;5192;50.328;7.610;2023-04-24T08:21:32;10.60;4.10
10294;DHT22;5192;50.328;7.610;2023-04-24T08:24:00;10.40;4.70
10294;DHT22;5192;50.328;7.610;2023-04-24T08:26:32;10.50;6.40
10294;DHT22;5192;50.328;7.610;2023-04-24T08:28:58;10.50;6.00
10294;DHT22;5192;50.328;7.610;2023-04-24T08:31:25;10.60;5.90
10294;DHT22;5192;50.328;7.610;2023-04-24T08:33:53;10.50;6.80
10294;DHT22;5192;50.328;7.610;2023-04-24T08:36:20;10.30;7.90
10294;DHT22;5192;50.328;7.610;2023-04-24T08:38:47;10.30;9.10
10294;DHT22;5192;50.328;7.610;2023-04-24T08:41:15;10.10;9.40
10294;DHT22;5192;50.328;7.610;2023-04-24T08:43:43;10.30;11.20
10294;DHT22;5192;50.328;7.610;2023-04-24T08:46:13;10.20;10.60
10294;DHT22;5192;50.328;7.610;2023-04-24T08:48:46;10.20;10.50
10294;DHT22;5192;50.328;7.610;2023-04-24T08:51:13;10.20;11.30
10294;DHT22;5192;50.328;7.610;2023-04-24T08:53:38;10.10;12.20
10294;DHT22;5192;50.328;7.610;2023-04-24T08:56:05;10.10;12.10
10294;DHT22;5192;50.328;7.610;2023-04-24T08:58:33;10.10;12.20
10294;DHT22;5192;50.328;7.610;2023-04-24T09:01:02;10.10;13.50
10294;DHT22;5192;50.328;7.610;2023-04-24T09:03:31;10.20;15.70
10294;DHT22;5192;50.328;7.610;2023-04-24T09:05:59;10.20;14.80
10294;DHT22;5192;50.328;7.610;2023-04-24T09:08:28;10.20;13.80
10294;DHT22;5192;50.328;7.610;2023-04-24T09:10:56;10.10;17.50
10294;DHT22;5192;50.328;7.610;2023-04-24T09:13:28;10.20;18.30
10294;DHT22;5192;50.328;7.610;2023-04-24T09:15:56;10.10;17.10
10294;DHT22;5192;50.328;7.610;2023-04-24T09:18:24;10.10;17.40
10294;DHT22;5192;50.328;7.610;2023-04-24T09:21:09;10.10;17.60
10294;DHT22;5192;50.328;7.610;2023-04-24T09:23:38;10.30;16.90
10294;DHT22;5192;50.328;7.610;2023-04-24T09:26:05;10.40;16.40
10294;DHT22;5192;50.328;7.610;2023-04-24T09:28:40;10.40;16.30
10294;DHT22;5192;50.328;7.610;2023-04-24T09:31:29;10.30;19.60
10294;DHT22;5192;50.328;7.610;2023-04-24T09:34:18;10.50;19.20
10294;DHT22;5192;50.328;7.610;2023-04-24T09:36:47;10.60;15.50
10294;DHT22;5192;50.328;7.610;2023-04-24T09:39:15;10.30;18.00
10294;DHT22;5192;50.328;7.610;2023-04-24T09:41:56;10.10;18.40
10294;DHT22;5192;50.328;7.610;2023-04-24T09:44:26;10.10;22.30
10294;DHT22;5192;50.328;7.610;2023-04-24T09:46:56;10.10;23.80
10294;DHT22;5192;50.328;7.610;2023-04-24T09:49:31;10.10;25.50
10294;DHT22;5192;50.328;7.610;2023-04-24T09:52:11;10.10;26.60
10294;DHT22;5192;50.328;7.610;2023-04-24T09:54:39;10.10;30.40
10294;DHT22;5192;50.328;7.610;2023-04-24T09:57:08;10.00;32.30
10294;DHT22;5192;50.328;7.610;2023-04-24T09:59:45;9.90;30.10
10294;DHT22;5192;50.328;7.610;2023-04-24T10:02:19;9.90;30.80
10294;DHT22;5192;50.328;7.610;2023-04-24T10:04:56;9.90;31.10
10294;DHT22;5192;50.328;7.610;2023-04-24T10:07:26;10.00;33.30
10294;DHT22;5192;50.328;7.610;2023-04-24T10:09:54;9.90;30.00
10294;DHT22;5192;50.328;7.610;2023-04-24T10:12:21;10.00;31.30
10294;DHT22;5192;50.328;7.610;2023-04-24T10:14:50;10.10;30.60
10294;DHT22;5192;50.328;7.610;2023-04-24T10:17:18;10.30;32.20
10294;DHT22;5192;50.328;7.610;2023-04-24T10:19:47;10.40;20.30
10294;DHT22;5192;50.328;7.610;2023-04-24T10:22:14;10.50;15.90
10294;DHT22;5192;50.328;7.610;2023-04-24T10:24:42;10.50;14.90
10294;DHT22;5192;50.328;7.610;2023-04-24T10:27:09;10.50;12.20
10294;DHT22;5192;50.328;7.610;2023-04-24T10:29:38;10.60;7.90
10294;DHT22;5192;50.328;7.610;2023-04-24T10:32:07;10.40;9.00
10294;DHT22;5192;50.328;7.610;2023-04-24T10:34:32;10.50;5.90
10294;DHT22;5192;50.328;7.610;2023-04-24T10:37:01;10.50;8.00
10294;DHT22;5192;50.328;7.610;2023-04-24T10:39:29;10.60;4.00
10294;DHT22;5192;50.328;7.610;2023-04-24T10:41:59;10.60;3.10
10294;DHT22;5192;50.328;7.610;2023-04-24T10:44:25;10.70;2.70
10294;DHT22;5192;50.328;7.610;2023-04-24T10:46:55;10.80;3.40
10294;DHT22;5192;50.328;7.610;2023-04-24T10:49:30;10.60;1.00
10294;DHT22;5192;50.328;7.610;2023-04-24T10:52:02;10.60;1.00
10294;DHT22;5192;50.328;7.610;2023-04-24T10:54:47;10.60;1.00
10294;DHT22;5192;50.328;7.610;2023-04-24T10:58:04;10.60;1.00
10294;DHT22;5192;50.328;7.610;2023-04-24T11:00:31;10.60;1.00
10294;DHT22;5192;50.328;7.610;2023-04-24T11:02:58;10.70;1.00
10294;DHT22;5192;50.328;7.610;2023-04-24T11:05:55;10.70;1.00
10294;DHT22;5192;50.328;7.610;2023-04-24T11:08:46;10.70;1.00
10294;DHT22;5192;50.328;7.610;2023-04-24T11:11:19;10.60;1.00
10294;DHT22;5192;50.328;7.610;2023-04-24T11:16:51;10.60;1.00
10294;DHT22;5192;50.328;7.610;2023-04-24T11:19:39;10.60;1.00
10294;DHT22;5192;50.328;7.610;2023-04-24T11:22:14;10.80;1.00
10294;DHT22;5192;50.328;7.610;2023-04-24T11:24:49;10.90;1.00
10294;DHT22;5192;50.328;7.610;2023-04-24T11:27:24;10.90;1.00
10294;DHT22;5192;50.328;7.610;2023-04-24T11:30:04;10.90;1.00
10294;DHT22;5192;50.328;7.610;2023-04-24T11:32:50;10.80;1.00
10294;DHT22;5192;50.328;7.610;2023-04-24T11:35:21;10.90;1.00
10294;DHT22;5192;50.328;7.610;2023-04-24T11:37:54;10.80;1.00
10294;DHT22;5192;50.328;7.610;2023-04-24T11:40:22;10.80;1.40
10294;DHT22;5192;50.328;7.610;2023-04-24T11:43:00;10.50;1.00
10294;DHT22;5192;50.328;7.610;2023-04-24T11:45:29;10.50;1.00
10294;DHT22;5192;50.328;7.610;2023-04-24T11:47:58;10.60;1.00
10294;DHT22;5192;50.328;7.610;2023-04-24T11:50:26;10.60;1.00
10294;DHT22;5192;50.328;7.610;2023-04-24T11:52:54;10.80;1.00
10294;DHT22;5192;50.328;7.610;2023-04-24T11:55:39;11.00;1.00
10294;DHT22;5192;50.328;7.610;2023-04-24T11:58:06;11.00;1.00
10294;DHT22;5192;50.328;7.610;2023-04-24T12:00:34;11.00;1.00
10294;DHT22;5192;50.328;7.610;2023-04-24T12:03:09;11.00;1.00
10294;DHT22;5192;50.328;7.610;2023-04-24T12:05:51;11.30;1.00
10294;DHT22;5192;50.328;7.610;2023-04-24T12:08:36;11.50;1.00
10294;DHT22;5192;50.328;7.610;2023-04-24T12:11:05;11.80;1.00
10294;DHT22;5192;50.328;7.610;2023-04-24T12:13:33;12.10;1.00
10294;DHT22;5192;50.328;7.610;2023-04-24T12:16:03;12.30;1.00
10294;DHT22;5192;50.328;7.610;2023-04-24T12:18:32;12.10;1.00
10294;DHT22;5192;50.328;7.610;2023-04-24T12:21:17;12.00;1.00
10294;DHT22;5192;50.328;7.610;2023-04-24T12:23:44;11.60;1.00
10294;DHT22;5192;50.328;7.610;2023-04-24T12:26:17;11.50;1.00
10294;DHT22;5192;50.328;7.610;2023-04-24T12:28:46;11.50;1.00
10294;DHT22;5192;50.328;7.610;2023-04-24T12:31:15;11.50;1.00
10294;DHT22;5192;50.328;7.610;2023-04-24T12:33:41;11.50;1.00
10294;DHT22;5192;50.328;7.610;2023-04-24T12:36:11;11.50;1.00
10294;DHT22;5192;50.328;7.610;2023-04-24T12:38:39;11.50;1.00
10294;DHT22;5192;50.328;7.610;2023-04-24T12:41:12;11.30;1.00
10294;DHT22;5192;50.328;7.610;2023-04-24T12:43:52;11.40;1.00
10294;DHT22;5192;50.328;7.610;2023-04-24T12:46:19;11.60;1.00
10294;DHT22;5192;50.328;7.610;2023-04-24T12:48:46;11.80;1.00
10294;DHT22;5192;50.328;7.610;2023-04-24T12:51:13;12.00;1.00
10294;DHT22;5192;50.328;7.610;2023-04-24T12:53:40;12.30;1.00
10294;DHT22;5192;50.328;7.610;2023-04-24T12:56:08;12.40;1.00
10294;DHT22;5192;50.328;7.610;2023-04-24T12:58:35;12.70;1.00
10294;DHT22;5192;50.328;7.610;2023-04-24T13:01:03;13.00;1.00
10294;DHT22;5192;50.328;7.610;2023-04-24T13:03:30;13.30;1.00
10294;DHT22;5192;50.328;7.610;2023-04-24T13:05:56;13.40;1.00
10294;DHT22;5192;50.328;7.610;2023-04-24T13:08:23;13.50;1.00
10294;DHT22;5192;50.328;7.610;2023-04-24T13:10:51;13.30;1.00
10294;DHT22;5192;50.328;7.610;2023-04-24T13:13:21;13.50;1.00
10294;DHT22;5192;50.328;7.610;2023-04-24T13:15:48;13.40;1.00
10294;DHT22;5192;50.328;7.610;2023-04-24T13:18:15;13.20;1.00
10294;DHT22;5192;50.328;7.610;2023-04-24T13:20:42;12.80;1.00
10294;DHT22;5192;50.328;7.610;2023-04-24T13:23:08;12.70;1.00
10294;DHT22;5192;50.328;7.610;2023-04-24T13:25:36;12.40;1.00
10294;DHT22;5192;50.328;7.610;2023-04-24T13:28:05;12.40;1.00
10294;DHT22;5192;50.328;7.610;2023-04-24T13:30:33;12.30;1.00
10294;DHT22;5192;50.328;7.610;2023-04-24T13:33:00;12.30;1.00
10294;DHT22;5192;50.328;7.610;2023-04-24T13:35:27;12.20;1.00
10294;DHT22;5192;50.328;7.610;2023-04-24T13:37:55;12.20;1.00
10294;DHT22;5192;50.328;7.610;2023-04-24T13:40:20;12.20;1.00
10294;DHT22;5192;50.328;7.610;2023-04-24T13:42:48;12.10;1.00
10294;DHT22;5192;50.328;7.610;2023-04-24T13:45:15;12.10;1.00
10294;DHT22;5192;50.328;7.610;2023-04-24T13:47:43;12.10;1.00
10294;DHT22;5192;50.328;7.610;2023-04-24T13:50:11;12.20;1.00
10294;DHT22;5192;50.328;7.610;2023-04-24T13:52:37;12.30;1.00
10294;DHT22;5192;50.328;7.610;2023-04-24T13:55:03;12.30;1.00
10294;DHT22;5192;50.328;7.610;2023-04-24T13:57:30;12.40;1.00
10294;DHT22;5192;50.328;7.610;2023-04-24T13:59:58;12.60;1.00
10294;DHT22;5192;50.328;7.610;2023-04-24T14:02:31;12.70;1.00
10294;DHT22;5192;50.328;7.610;2023-04-24T14:04:58;12.70;1.00
10294;DHT22;5192;50.328;7.610;2023-04-24T14:07:25;12.80;1.00
10294;DHT22;5192;50.328;7.610;2023-04-24T14:09:51;12.80;1.00
10294;DHT22;5192;50.328;7.610;2023-04-24T14:12:18;12.70;1.00
10294;DHT22;5192;50.328;7.610;2023-04-24T14:14:48;12.70;1.00
10294;DHT22;5192;50.328;7.610;2023-04-24T14:17:17;12.60;1.00
10294;DHT22;5192;50.328;7.610;2023-04-24T14:19:46;12.50;1.00
10294;DHT22;5192;50.328;7.610;2023-04-24T14:22:14;12.50;1.00
10294;DHT22;5192;50.328;7.610;2023-04-24T14:24:43;12.40;1.00
10294;DHT22;5192;50.328;7.610;2023-04-24T14:27:11;12.50;1.00
10294;DHT22;5192;50.328;7.610;2023-04-24T14:29:38;12.30;1.00
10294;DHT22;5192;50.328;7.610;2023-04-24T14:32:04;12.30;1.00
10294;DHT22;5192;50.328;7.610;2023-04-24T14:34:33;12.30;1.00
10294;DHT22;5192;50.328;7.610;2023-04-24T14:37:00;12.20;1.00
10294;DHT22;5192;50.328;7.610;2023-04-24T14:39:28;12.30;1.00
10294;DHT22;5192;50.328;7.610;2023-04-24T14:41:54;12.30;1.00
10294;DHT22;5192;50.328;7.610;2023-04-24T14:44:23;12.10;1.00
10294;DHT22;5192;50.328;7.610;2023-04-24T14:46:49;12.50;1.00
10294;DHT22;5192;50.328;7.610;2023-04-24T14:49:16;12.80;1.00
10294;DHT22;5192;50.328;7.610;2023-04-24T14:51:43;12.40;1.00
10294;DHT22;5192;50.328;7.610;2023-04-24T14:54:12;12.80;1.00
10294;DHT22;5192;50.328;7.610;2023-04-24T14:56:39;12.80;1.00
10294;DHT22;5192;50.328;7.610;2023-04-24T14:59:08;13.00;1.00
10294;DHT22;5192;50.328;7.610;2023-04-24T15:01:35;13.50;1.00
10294;DHT22;5192;50.328;7.610;2023-04-24T15:04:02;13.80;1.00
10294;DHT22;5192;50.328;7.610;2023-04-24T15:06:29;14.10;1.00
10294;DHT22;5192;50.328;7.610;2023-04-24T15:08:59;14.00;1.00
10294;DHT22;5192;50.328;7.610;2023-04-24T15:11:27;14.00;1.00
10294;DHT22;5192;50.328;7.610;2023-04-24T15:13:55;13.60;1.00
10294;DHT22;5192;50.328;7.610;2023-04-24T15:16:23;13.40;1.00
10294;DHT22;5192;50.328;7.610;2023-04-24T15:18:51;13.10;1.00
10294;DHT22;5192;50.328;7.610;2023-04-24T15:21:18;12.70;1.00
10294;DHT22;5192;50.328;7.610;2023-04-24T15:23:46;12.50;1.00
10294;DHT22;5192;50.328;7.610;2023-04-24T15:26:16;12.30;1.00
10294;DHT22;5192;50.328;7.610;2023-04-24T15:28:43;12.10;1.00
10294;DHT22;5192;50.328;7.610;2023-04-24T15:31:10;12.10;1.00
10294;DHT22;5192;50.328;7.610;2023-04-24T15:33:37;11.90;1.00
10294;DHT22;5192;50.328;7.610;2023-04-24T15:36:04;11.80;1.00
10294;DHT22;5192;50.328;7.610;2023-04-24T15:38:33;11.60;1.00
10294;DHT22;5192;50.328;7.610;2023-04-24T15:41:00;11.60;1.10
10294;DHT22;5192;50.328;7.610;2023-04-24T15:43:27;11.60;1.40
10294;DHT22;5192;50.328;7.610;2023-04-24T15:45:58;11.60;1.00
10294;DHT22;5192;50.328;7.610;2023-04-24T15:48:27;11.70;1.90
10294;DHT22;5192;50.328;7.610;2023-04-24T15:50:54;12.00;1.00
10294;DHT22;5192;50.328;7.610;2023-04-24T15:53:22;12.70;1.00
10294;DHT22;5192;50.328;7.610;2023-04-24T15:55:49;13.50;1.00
10294;DHT22;5192;50.328;7.610;2023-04-24T15:58:18;14.60;1.00
10294;DHT22;5192;50.328;7.610;2023-04-24T16:00:46;15.20;1.00
10294;DHT22;5192;50.328;7.610;2023-04-24T16:03:13;15.20;1.00
10294;DHT22;5192;50.328;7.610;2023-04-24T16:05:40;15.30;1.00
10294;DHT22;5192;50.328;7.610;2023-04-24T16:08:06;15.50;1.00
10294;DHT22;5192;50.328;7.610;2023-04-24T16:10:34;15.60;1.00